Sao Felix de Balsas, Brazil
Current Conditions -  °F | °C
As of 8:00 AM on Friday 24 Oct 2014 (Local Time) from SBTE Reporting Station
Scattered Clouds Scattered Clouds  
Wind Chill: 82°   Ceiling: Unl
Heat Index: 86°   Visibility: 6mi
Dew Point: 70°   Wind: 2mph
Humidity: 66%   Direction: 40°NE
Pressure: 29.88"   Gusts: NA
Location:  7.13°S, 44.87°W
Report Text: SBTE 241100Z 04002KT 9999 FEW015 SCT080 28/21 Q1012
Loading
Personal Weather Stations






























Interactive Weather Map
Tropical Storm Tracking
New forecast layout! Learn more

10-Day Weather Forecast

Advertisements
Track Severe Weather on mobile